Time;durP1;ratioP1;P1;durP2;ratioP2;P2;SDS_P1;SDS_P2;PMS_P1;PMS_P2;Temp;Humidity;BMP_temperature;BMP_pressure;BME280_temperature;BME280_humidity;BME280_pressure;Samples;Min_cycle;Max_cycle;Signal;HPM_P1;HPM_P2
2023/08/27 16:54:38;;;;;;;14.60;5.10;;;;;;;34.53;40.12;100281.05;104275;1284;600935;-71
2023/08/27 16:57:07;;;;;;;10.50;4.40;;;;;;;34.37;40.68;100282.80;106206;1258;62738;-71
2023/08/27 16:59:36;;;;;;;16.90;4.70;;;;;;;34.22;41.53;100282.33;106179;1258;62599;-69
2023/08/27 17:02:07;;;;;;;10.80;4.80;;;;;;;34.03;41.64;100283.55;106161;1263;63656;-72
2023/08/27 17:04:36;;;;;;;9.00;4.90;;;;;;;33.88;42.30;100286.92;106815;1252;61733;-70
2023/08/27 17:07:05;;;;;;;13.10;5.30;;;;;;;33.64;43.17;100288.77;106675;1257;226836;-69
2023/08/27 17:09:34;;;;;;;9.50;5.10;;;;;;;33.47;43.21;100290.30;107027;1245;63047;-74
2023/08/27 17:12:04;;;;;;;13.30;5.30;;;;;;;33.25;43.49;100285.86;107070;1249;59076;-71
2023/08/27 17:14:33;;;;;;;12.00;5.10;;;;;;;33.21;43.77;100291.12;107079;1245;60419;-71
2023/08/27 17:17:01;;;;;;;9.60;5.00;;;;;;;33.10;44.76;100290.24;107090;1245;70892;-71
2023/08/27 17:19:30;;;;;;;11.40;4.90;;;;;;;33.00;44.50;100290.08;107060;1245;72348;-74
2023/08/27 17:21:59;;;;;;;11.20;4.90;;;;;;;32.88;45.07;100293.03;107090;1249;60409;-74
2023/08/27 17:24:28;;;;;;;13.70;4.80;;;;;;;32.74;45.32;100295.37;107001;1258;63028;-72
2023/08/27 17:26:57;;;;;;;10.90;4.50;;;;;;;32.63;45.87;100296.86;106954;1258;59063;-71
2023/08/27 17:29:26;;;;;;;9.00;5.10;;;;;;;32.53;46.16;100303.21;106909;1259;58810;-71
2023/08/27 17:31:55;;;;;;;13.60;5.40;;;;;;;32.41;46.36;100306.59;106949;1249;61762;-72
2023/08/27 17:34:24;;;;;;;8.40;4.80;;;;;;;32.33;47.48;100312.16;107037;1247;60972;-70
2023/08/27 17:36:53;;;;;;;7.30;4.70;;;;;;;32.21;47.87;100315.21;106873;1248;70857;-70
2023/08/27 17:39:21;;;;;;;12.10;5.10;;;;;;;32.08;48.79;100314.41;106808;1248;73902;-68
2023/08/27 17:41:50;;;;;;;10.30;5.10;;;;;;;31.92;48.47;100318.65;106821;1258;61799;-70
2023/08/27 17:44:19;;;;;;;12.90;5.10;;;;;;;31.80;49.19;100319.00;106915;1246;61439;-70
2023/08/27 17:46:48;;;;;;;9.50;5.00;;;;;;;31.68;49.80;100315.88;106833;1258;73270;-70
2023/08/27 17:49:17;;;;;;;9.90;4.90;;;;;;;31.57;50.62;100316.17;107024;1248;63981;-70
2023/08/27 17:51:46;;;;;;;13.60;5.00;;;;;;;31.45;51.23;100319.32;107026;1256;60339;-70
2023/08/27 17:54:15;;;;;;;12.70;5.50;;;;;;;31.35;51.08;100324.26;106987;1256;62752;-70
2023/08/27 17:56:44;;;;;;;12.60;5.50;;;;;;;31.25;51.78;100327.34;107044;1249;59127;-69
2023/08/27 17:59:13;;;;;;;10.80;5.00;;;;;;;31.14;52.51;100329.83;107119;1248;59104;-70
2023/08/27 18:01:42;;;;;;;8.60;4.90;;;;;;;31.04;52.75;100331.84;107115;1246;61655;-77
2023/08/27 18:04:11;;;;;;;11.30;5.30;;;;;;;30.95;53.31;100335.24;106974;1249;61187;-69
2023/08/27 18:06:40;;;;;;;13.80;7.10;;;;;;;30.86;54.00;100332.90;107051;1249;59502;-69
2023/08/27 18:09:09;;;;;;;12.70;5.80;;;;;;;30.76;54.39;100332.15;106992;1256;63143;-70
2023/08/27 18:11:38;;;;;;;9.90;5.10;;;;;;;30.66;54.03;100332.01;107056;1248;59174;-69
2023/08/27 18:14:09;;;;;;;16.80;6.40;;;;;;;30.62;54.41;100332.88;106713;1258;59130;-82
2023/08/27 18:16:38;;;;;;;12.50;6.50;;;;;;;30.55;54.23;100332.41;107056;1248;62658;-70
2023/08/27 18:19:08;;;;;;;12.80;5.60;;;;;;;30.52;54.40;100328.39;106935;1249;60908;-71
2023/08/27 18:21:37;;;;;;;10.00;5.70;;;;;;;30.47;55.17;100330.54;106825;1258;59203;-70
2023/08/27 18:24:07;;;;;;;9.10;5.70;;;;;;;30.40;55.04;100332.98;106802;1255;73197;-71
2023/08/27 18:26:36;;;;;;;10.60;5.30;;;;;;;30.30;55.67;100333.56;106820;1245;60640;-70
2023/08/27 18:29:07;;;;;;;10.90;5.50;;;;;;;30.24;55.80;100333.91;106815;1249;59038;-70
2023/08/27 18:31:36;;;;;;;10.70;4.90;;;;;;;30.16;56.42;100332.47;106840;1249;62457;-70
2023/08/27 18:34:05;;;;;;;9.70;4.90;;;;;;;30.08;56.14;100328.89;106817;1248;61061;-80
2023/08/27 18:36:34;;;;;;;10.70;5.30;;;;;;;30.01;56.74;100333.10;107014;1251;61723;-74
2023/08/27 18:39:03;;;;;;;11.40;5.70;;;;;;;29.95;56.89;100337.00;107334;1245;73939;-72
2023/08/27 18:41:32;;;;;;;12.70;6.00;;;;;;;29.88;57.39;100341.20;107072;1245;58862;-75
2023/08/27 18:44:04;;;;;;;8.30;5.60;;;;;;;29.76;59.13;100340.70;107051;1252;61101;-72
2023/08/27 18:46:38;;;;;;;9.90;5.40;;;;;;;29.62;61.32;100345.05;106969;1247;61898;-72
2023/08/27 18:49:08;;;;;;;11.00;5.20;;;;;;;29.44;61.87;100344.14;107086;1256;63393;-72
2023/08/27 18:51:37;;;;;;;10.30;5.00;;;;;;;29.28;61.91;100346.36;106997;1256;60448;-77
2023/08/27 18:54:06;;;;;;;10.50;5.10;;;;;;;29.06;65.42;100349.36;107040;1245;73033;-72
2023/08/27 18:56:35;;;;;;;9.50;5.20;;;;;;;28.89;66.02;100343.48;106990;1245;57981;-74
2023/08/27 18:59:04;;;;;;;8.60;5.10;;;;;;;28.74;65.73;100345.89;107279;1244;58970;-77
2023/08/27 19:01:33;;;;;;;10.30;5.40;;;;;;;28.61;65.97;100344.72;107280;1244;73044;-72
2023/08/27 19:04:02;;;;;;;16.20;5.10;;;;;;;28.51;65.99;100346.65;107016;1245;72437;-71
2023/08/27 19:06:31;;;;;;;9.60;4.70;;;;;;;28.55;63.88;100344.59;107066;1253;60279;-70
2023/08/27 19:09:00;;;;;;;12.00;4.90;;;;;;;28.61;63.43;100344.17;107056;1252;62764;-70
2023/08/27 19:11:29;;;;;;;10.20;4.90;;;;;;;28.70;62.16;100342.67;107085;1245;58922;-71
2023/08/27 19:13:58;;;;;;;8.40;4.50;;;;;;;28.83;61.33;100340.73;107117;1245;58969;-72
2023/08/27 19:16:27;;;;;;;8.90;4.80;;;;;;;28.91;60.51;100337.42;106957;1244;72539;-68
2023/08/27 19:18:56;;;;;;;11.60;4.80;;;;;;;29.09;58.88;100339.58;107002;1245;72214;-73
2023/08/27 19:21:25;;;;;;;7.50;4.60;;;;;;;29.29;58.49;100342.17;106984;1247;70751;-73
2023/08/27 19:23:54;;;;;;;9.90;4.90;;;;;;;29.35;57.93;100342.00;106945;1246;73831;-73
2023/08/27 19:26:23;;;;;;;11.00;4.70;;;;;;;29.46;57.87;100345.41;106970;1245;61285;-72
2023/08/27 19:28:52;;;;;;;8.40;3.90;;;;;;;29.51;57.35;100344.55;107057;1249;61984;-73
2023/08/27 19:31:22;;;;;;;8.90;4.30;;;;;;;29.54;56.95;100344.83;107003;1247;63890;-75
2023/08/27 19:34:04;;;;;;;7.10;4.20;;;;;;;29.51;56.93;100346.66;106972;1251;72862;-74
2023/08/27 19:36:33;;;;;;;8.10;4.40;;;;;;;29.53;56.67;100346.95;107148;1254;60432;-72
2023/08/27 19:39:02;;;;;;;7.80;4.60;;;;;;;29.54;56.50;100346.55;107106;1250;62903;-71
2023/08/27 19:41:31;;;;;;;8.20;4.00;;;;;;;29.53;56.43;100345.98;107157;1255;59125;-72
2023/08/27 19:44:01;;;;;;;10.50;4.30;;;;;;;29.48;56.34;100351.00;107182;1242;59105;-72
2023/08/27 19:46:30;;;;;;;7.60;4.10;;;;;;;29.42;56.79;100353.95;107116;1244;62920;-72
2023/08/27 19:48:59;;;;;;;10.70;4.40;;;;;;;29.38;56.63;100355.66;106961;1248;62083;-72
2023/08/27 19:51:30;;;;;;;10.30;4.30;;;;;;;29.39;56.09;100359.45;107204;1251;69607;-73
2023/08/27 19:54:01;;;;;;;11.00;4.10;;;;;;;29.39;55.99;100356.39;107190;1247;73862;-72
2023/08/27 19:56:30;;;;;;;12.80;3.90;;;;;;;29.38;55.92;100355.29;107191;1245;58010;-72
2023/08/27 19:58:59;;;;;;;8.60;3.90;;;;;;;29.38;55.51;100357.33;107128;1244;59097;-73
2023/08/27 20:01:28;;;;;;;8.40;4.20;;;;;;;29.37;55.90;100359.52;107197;1244;61308;-71
2023/08/27 20:03:57;;;;;;;9.80;4.70;;;;;;;29.33;56.21;100357.91;107086;1245;61106;-69
2023/08/27 20:06:26;;;;;;;7.80;4.10;;;;;;;29.29;55.88;100356.87;107049;1248;59818;-70
2023/08/27 20:08:55;;;;;;;6.80;4.60;;;;;;;29.29;56.17;100356.70;109240;1241;62745;-69
2023/08/27 20:11:24;;;;;;;5.50;4.00;;;;;;;29.23;55.83;100358.58;109353;1244;60954;-70
2023/08/27 20:13:53;;;;;;;8.90;4.00;;;;;;;29.17;56.02;100354.11;108693;1243;57952;-72
2023/08/27 20:16:21;;;;;;;10.60;4.20;;;;;;;29.09;55.93;100353.89;109361;1244;72876;-72
2023/08/27 20:18:50;;;;;;;6.70;4.00;;;;;;;29.03;56.17;100355.65;109370;1245;62333;-72
2023/08/27 20:21:19;;;;;;;8.10;3.90;;;;;;;29.00;56.40;100355.87;108042;1245;59808;-71
2023/08/27 20:23:48;;;;;;;7.70;4.00;;;;;;;28.95;56.90;100353.66;107094;1252;73154;-73
2023/08/27 20:26:18;;;;;;;9.80;4.50;;;;;;;28.92;56.72;100353.33;107106;1246;62046;-72
2023/08/27 20:28:47;;;;;;;7.90;3.80;;;;;;;28.86;56.97;100350.89;107117;1254;61206;-71
2023/08/27 20:31:16;;;;;;;11.00;4.30;;;;;;;28.81;56.83;100354.55;107243;1245;72728;-73
2023/08/27 20:33:45;;;;;;;9.30;3.70;;;;;;;28.76;56.36;100352.16;107212;1252;72395;-72
2023/08/27 20:36:14;;;;;;;8.60;3.70;;;;;;;28.69;56.54;100352.83;107610;1245;70456;-72
2023/08/27 20:38:43;;;;;;;7.60;4.10;;;;;;;28.62;56.93;100349.45;107128;1245;72933;-71
2023/08/27 20:41:14;;;;;;;7.00;3.60;;;;;;;28.58;56.90;100354.52;107338;1245;58972;-71
2023/08/27 20:43:45;;;;;;;6.70;3.70;;;;;;;28.52;56.72;100352.20;107212;1256;57425;-73
2023/08/27 20:46:14;;;;;;;7.50;3.90;;;;;;;28.49;56.96;100348.06;107408;1252;63792;-74
2023/08/27 20:48:43;;;;;;;5.20;3.60;;;;;;;28.50;56.80;100349.32;107264;1252;63744;-71
2023/08/27 20:51:13;;;;;;;8.90;3.80;;;;;;;28.47;56.51;100346.20;107206;1249;60198;-71
2023/08/27 20:53:42;;;;;;;6.80;3.40;;;;;;;28.45;56.63;100346.32;107318;1256;63233;-71
2023/08/27 20:56:11;;;;;;;7.50;3.90;;;;;;;28.44;56.69;100346.02;107283;1245;57945;-73
2023/08/27 20:58:41;;;;;;;7.60;3.70;;;;;;;28.42;56.59;100343.73;107309;1245;58877;-71
2023/08/27 21:01:10;;;;;;;7.20;3.90;;;;;;;28.38;56.44;100344.02;107237;1245;64790;-71
2023/08/27 21:03:39;;;;;;;6.70;3.60;;;;;;;28.33;56.71;100343.91;107204;1246;64091;-71
2023/08/27 21:06:08;;;;;;;9.20;4.00;;;;;;;28.31;56.63;100344.60;107490;1246;61488;-71
2023/08/27 21:08:37;;;;;;;6.90;3.90;;;;;;;28.26;56.80;100347.83;107282;1245;73480;-72
2023/08/27 21:11:07;;;;;;;6.00;3.50;;;;;;;28.17;56.79;100345.17;107093;1244;61985;-71
2023/08/27 21:13:37;;;;;;;9.90;3.70;;;;;;;28.14;57.10;100343.54;107161;1247;58924;-70
2023/08/27 21:16:06;;;;;;;6.70;3.80;;;;;;;28.10;57.09;100342.21;107058;1255;62583;-75
2023/08/27 21:18:35;;;;;;;10.60;4.10;;;;;;;28.03;57.20;100344.99;107242;1245;61416;-71
2023/08/27 21:21:04;;;;;;;6.50;3.80;;;;;;;27.92;57.72;100345.19;107369;1245;60896;-73
2023/08/27 21:23:33;;;;;;;7.80;3.60;;;;;;;27.84;57.96;100346.52;107264;1244;64078;-71
2023/08/27 21:26:02;;;;;;;6.20;3.50;;;;;;;27.79;57.62;100343.11;107121;1246;61278;-71
2023/08/27 21:28:30;;;;;;;8.40;3.60;;;;;;;27.71;58.25;100339.97;107031;1246;61231;-71
2023/08/27 21:31:00;;;;;;;7.70;3.80;;;;;;;27.57;59.20;100342.02;107123;1245;73537;-72
2023/08/27 21:33:49;;;;;;;8.10;3.40;;;;;;;27.53;59.07;100338.71;106974;1254;62393;-69
2023/08/27 21:36:18;;;;;;;7.00;3.50;;;;;;;27.43;59.79;100335.52;107136;1247;59554;-71
2023/08/27 21:38:47;;;;;;;10.60;4.00;;;;;;;27.28;61.29;100336.72;107160;1252;62475;-72
2023/08/27 21:41:16;;;;;;;6.50;3.50;;;;;;;27.20;61.08;100339.07;107160;1246;59059;-73
2023/08/27 21:43:45;;;;;;;5.70;3.80;;;;;;;27.15;60.92;100334.09;107242;1245;58503;-71
2023/08/27 21:46:14;;;;;;;5.10;3.30;;;;;;;27.07;62.26;100334.16;107339;1245;62734;-72
2023/08/27 21:48:43;;;;;;;7.30;3.50;;;;;;;27.00;62.80;100333.95;107203;1255;61208;-70
2023/08/27 21:51:12;;;;;;;7.30;3.80;;;;;;;26.95;62.86;100334.48;107162;1249;59211;-70
2023/08/27 21:53:41;;;;;;;9.50;3.90;;;;;;;26.92;62.52;100332.95;107297;1244;62734;-70
2023/08/27 21:56:10;;;;;;;10.10;3.80;;;;;;;26.87;63.49;100336.66;107131;1246;59020;-70
2023/08/27 21:58:39;;;;;;;9.00;3.40;;;;;;;26.84;63.73;100336.20;107301;1250;58995;-70
2023/08/27 22:01:10;;;;;;;7.10;3.50;;;;;;;26.82;63.90;100332.75;107245;1249;63827;-70
2023/08/27 22:03:39;;;;;;;8.40;4.40;;;;;;;26.80;64.33;100331.05;107351;1245;71272;-70
2023/08/27 22:06:08;;;;;;;5.30;4.00;;;;;;;26.73;65.52;100331.14;107360;1246;60802;-70
2023/08/27 22:08:37;;;;;;;8.30;3.60;;;;;;;26.67;65.65;100328.37;107427;1252;62741;-72
2023/08/27 22:11:06;;;;;;;6.70;3.90;;;;;;;26.63;66.22;100329.04;107444;1245;59181;-72
2023/08/27 22:13:36;;;;;;;7.70;3.70;;;;;;;26.59;65.88;100326.99;107626;1254;60212;-71
2023/08/27 22:16:08;;;;;;;9.00;4.20;;;;;;;26.54;66.39;100324.58;109650;1244;74052;-71
2023/08/27 22:18:36;;;;;;;6.70;4.00;;;;;;;26.53;65.85;100322.82;109712;1243;62899;-72
2023/08/27 22:21:05;;;;;;;7.80;5.40;;;;;;;26.52;66.67;100327.08;109520;1244;60496;-71
2023/08/27 22:23:36;;;;;;;6.80;4.10;;;;;;;26.52;66.63;100323.79;109587;1244;62248;-71
2023/08/27 22:26:04;;;;;;;7.80;3.90;;;;;;;26.53;66.65;100322.28;109629;1244;57694;-71
2023/08/27 22:28:33;;;;;;;5.70;3.70;;;;;;;26.56;66.44;100319.58;109666;1244;57699;-72
2023/08/27 22:31:02;;;;;;;6.90;3.80;;;;;;;26.58;66.87;100321.40;109535;1243;62777;-72
2023/08/27 22:33:31;;;;;;;8.80;3.80;;;;;;;26.57;66.81;100317.73;109632;1244;63265;-71
2023/08/27 22:35:59;;;;;;;6.40;3.50;;;;;;;26.56;66.84;100315.95;109468;1244;61293;-75
2023/08/27 22:38:28;;;;;;;5.60;3.60;;;;;;;26.55;67.10;100316.83;109662;1243;63410;-71
2023/08/27 22:40:57;;;;;;;8.50;3.80;;;;;;;26.54;66.74;100315.96;109692;1244;61046;-71
2023/08/27 22:43:26;;;;;;;6.70;3.60;;;;;;;26.53;66.74;100315.31;109706;1244;57693;-70
2023/08/27 22:45:55;;;;;;;10.50;3.80;;;;;;;26.52;67.19;100318.55;109641;1244;62846;-71
2023/08/27 22:48:24;;;;;;;6.60;3.80;;;;;;;26.51;67.26;100317.70;109532;1244;63550;-72
2023/08/27 22:50:52;;;;;;;5.20;3.70;;;;;;;26.48;67.68;100315.67;109647;1242;70778;-73
2023/08/27 22:53:21;;;;;;;9.10;3.70;;;;;;;26.46;67.39;100318.87;109644;1244;63552;-74
2023/08/27 22:55:50;;;;;;;6.80;3.50;;;;;;;26.43;67.54;100321.52;109627;1244;57661;-74
2023/08/27 22:58:19;;;;;;;5.70;3.80;;;;;;;26.41;67.45;100322.30;109646;1243;57670;-72
2023/08/27 23:00:47;;;;;;;7.80;4.00;;;;;;;26.37;67.55;100321.86;109676;1242;63799;-72
2023/08/27 23:03:16;;;;;;;7.00;3.80;;;;;;;26.38;67.25;100324.71;109536;1244;60709;-71
2023/08/27 23:05:45;;;;;;;10.10;4.30;;;;;;;26.37;67.47;100325.91;109709;1243;70262;-74
2023/08/27 23:08:14;;;;;;;8.10;4.20;;;;;;;26.34;67.28;100328.14;109465;1247;64422;-72
2023/08/27 23:10:43;;;;;;;5.40;3.60;;;;;;;26.34;67.09;100335.30;109690;1244;60857;-70
2023/08/27 23:13:12;;;;;;;7.60;4.10;;;;;;;26.34;67.00;100337.98;109680;1244;60838;-71
2023/08/27 23:15:41;;;;;;;5.50;4.00;;;;;;;26.34;66.85;100336.70;109777;1242;63660;-70
2023/08/27 23:18:10;;;;;;;5.00;3.60;;;;;;;26.34;66.99;100340.28;109786;1241;71041;-71
2023/08/27 23:20:39;;;;;;;9.60;4.30;;;;;;;26.40;66.33;100341.83;109793;1241;71122;-70
2023/08/27 23:23:07;;;;;;;7.00;4.10;;;;;;;26.38;66.75;100342.83;109795;1241;72621;-71
2023/08/27 23:25:40;;;;;;;8.60;4.10;;;;;;;26.37;66.83;100344.44;109792;1242;57707;-69
2023/08/27 23:28:09;;;;;;;6.90;3.60;;;;;;;26.39;66.30;100345.91;109729;1246;57611;-70
2023/08/27 23:30:40;;;;;;;10.40;4.40;;;;;;;26.44;65.86;100347.36;109595;1244;62735;-70
2023/08/27 23:33:09;;;;;;;7.80;4.20;;;;;;;26.59;65.88;100347.69;109794;1241;60629;-70
2023/08/27 23:35:38;;;;;;;7.50;4.50;;;;;;;26.64;65.31;100347.94;109505;1244;58968;-70
2023/08/27 23:38:07;;;;;;;8.70;3.50;;;;;;;26.61;65.33;100348.73;109742;1241;72816;-72
2023/08/27 23:40:35;;;;;;;6.20;3.70;;;;;;;26.56;65.59;100349.31;109770;1241;60867;-72
2023/08/27 23:43:04;;;;;;;8.10;3.90;;;;;;;26.49;66.65;100348.73;109781;1244;57775;-73
2023/08/27 23:45:33;;;;;;;7.20;3.90;;;;;;;26.40;68.06;100345.77;109796;1244;62786;-72
2023/08/27 23:48:02;;;;;;;7.90;3.80;;;;;;;26.30;68.30;100343.33;109759;1242;63304;-72
2023/08/27 23:50:31;;;;;;;7.60;4.10;;;;;;;26.18;68.96;100341.67;109799;1241;69878;-71
2023/08/27 23:52:59;;;;;;;6.10;4.30;;;;;;;26.09;69.51;100339.76;109743;1241;62978;-71
2023/08/27 23:55:28;;;;;;;6.60;4.40;;;;;;;26.02;69.52;100335.92;109682;1241;57739;-71
2023/08/27 23:57:57;;;;;;;7.70;4.10;;;;;;;25.94;70.95;100338.05;109719;1244;57232;-71
